createdAt,value
2022-08-16T00:02:30.383Z,5.03
2022-08-16T00:04:59.968Z,4.90
2022-08-16T00:07:29.190Z,4.70
2022-08-16T00:09:57.311Z,4.75
2022-08-16T00:12:25.008Z,5.22
2022-08-16T00:14:56.889Z,5.18
2022-08-16T00:17:24.550Z,4.35
2022-08-16T00:19:53.372Z,4.82
2022-08-16T00:22:24.864Z,4.50
2022-08-16T00:24:53.438Z,4.38
2022-08-16T00:27:21.221Z,5.45
2022-08-16T00:29:48.086Z,4.57
2022-08-16T00:32:28.180Z,5.10
2022-08-16T00:35:00.693Z,4.68
2022-08-16T00:37:56.900Z,5.00
2022-08-16T00:40:34.569Z,4.35
2022-08-16T00:43:12.287Z,4.43
2022-08-16T00:46:32.960Z,4.60
2022-08-16T00:48:53.840Z,4.57
2022-08-16T00:51:23.536Z,4.32
2022-08-16T00:53:53.257Z,4.30
2022-08-16T00:56:57.823Z,4.00
2022-08-16T00:59:15.166Z,4.50
2022-08-16T01:01:44.771Z,4.20
2022-08-16T01:04:29.049Z,4.43
2022-08-16T01:07:01.729Z,3.97
2022-08-16T01:09:33.672Z,4.30
2022-08-16T01:12:02.104Z,4.55
2022-08-16T01:14:34.007Z,4.50
2022-08-16T01:17:02.336Z,3.95
2022-08-16T01:19:52.827Z,4.15
2022-08-16T01:22:49.732Z,3.72
2022-08-16T01:25:33.969Z,4.15
2022-08-16T01:28:09.321Z,4.45
2022-08-16T01:30:40.129Z,3.97
2022-08-16T01:33:19.129Z,4.03
2022-08-16T01:35:57.240Z,4.53
2022-08-16T01:38:33.818Z,3.90
2022-08-16T01:41:05.385Z,4.40
2022-08-16T01:43:35.571Z,3.92
2022-08-16T01:46:38.465Z,4.70
2022-08-16T01:48:56.576Z,5.00
2022-08-16T01:51:25.507Z,4.30
2022-08-16T01:53:54.511Z,4.50
2022-08-16T01:56:25.238Z,4.85
2022-08-16T01:58:54.949Z,4.93
2022-08-16T02:01:22.319Z,4.50
2022-08-16T02:03:50.467Z,4.38
2022-08-16T02:06:33.724Z,4.45
2022-08-16T02:09:02.158Z,4.68
2022-08-16T02:11:48.481Z,4.60
2022-08-16T02:14:21.663Z,4.20
2022-08-16T02:16:49.067Z,4.43
2022-08-16T02:19:18.255Z,4.00
2022-08-16T02:22:08.584Z,4.22
2022-08-16T02:24:40.997Z,3.92
2022-08-16T02:27:08.949Z,3.80
2022-08-16T02:29:35.807Z,3.80
2022-08-16T02:32:04.584Z,4.28
2022-08-16T02:34:50.332Z,4.63
2022-08-16T02:37:21.079Z,4.57
2022-08-16T02:39:53.970Z,4.32
2022-08-16T02:42:21.456Z,4.95
2022-08-16T02:44:48.938Z,3.92
2022-08-16T02:47:24.879Z,4.15
2022-08-16T02:49:59.320Z,3.72
2022-08-16T02:52:39.095Z,3.90
2022-08-16T02:55:12.008Z,3.88
2022-08-16T02:57:54.403Z,3.67
2022-08-16T03:00:33.838Z,4.00
2022-08-16T03:03:01.861Z,4.30
2022-08-16T03:05:31.642Z,3.95
2022-08-16T03:07:58.737Z,3.80
2022-08-16T03:10:31.856Z,3.95
2022-08-16T03:13:00.937Z,3.97
2022-08-16T03:15:28.668Z,3.97
2022-08-16T03:17:56.486Z,4.15
2022-08-16T03:20:31.958Z,3.80
2022-08-16T03:22:59.533Z,3.35
2022-08-16T03:25:44.163Z,4.43
2022-08-16T03:28:11.613Z,4.10
2022-08-16T03:30:38.619Z,3.88
2022-08-16T03:33:05.435Z,3.45
2022-08-16T03:35:36.247Z,3.83
2022-08-16T03:38:33.684Z,3.83
2022-08-16T03:40:57.855Z,4.22
2022-08-16T03:43:24.626Z,3.97
2022-08-16T03:46:11.314Z,3.92
2022-08-16T03:48:40.470Z,4.03
2022-08-16T03:51:12.400Z,3.78
2022-08-16T03:53:40.642Z,4.25
2022-08-16T03:56:19.911Z,4.68
2022-08-16T03:58:48.333Z,3.88
2022-08-16T04:01:15.119Z,4.15
2022-08-16T04:03:43.036Z,4.47
2022-08-16T04:06:10.795Z,5.05
2022-08-16T04:08:39.668Z,4.22
2022-08-16T04:11:06.852Z,4.20
2022-08-16T04:14:00.997Z,4.03
2022-08-16T04:16:26.708Z,4.20
2022-08-16T04:19:02.232Z,3.60
2022-08-16T04:21:32.458Z,3.95
2022-08-16T04:23:59.633Z,4.47
2022-08-16T04:26:26.199Z,3.83
2022-08-16T04:29:15.192Z,4.13
2022-08-16T04:31:45.106Z,4.43
2022-08-16T04:34:12.378Z,4.00
2022-08-16T04:36:39.563Z,3.58
2022-08-16T04:39:06.385Z,4.13
2022-08-16T04:41:37.444Z,4.35
2022-08-16T04:44:31.089Z,4.40
2022-08-16T04:47:02.161Z,3.88
2022-08-16T04:49:45.563Z,4.18
2022-08-16T04:52:34.756Z,3.70
2022-08-16T04:54:59.873Z,4.07
2022-08-16T04:57:30.193Z,4.35
2022-08-16T04:59:56.968Z,4.65
2022-08-16T05:02:41.798Z,4.20
2022-08-16T05:05:17.093Z,4.13
2022-08-16T05:07:57.753Z,4.43
2022-08-16T05:10:27.899Z,3.90
2022-08-16T05:12:54.534Z,4.60
2022-08-16T05:15:23.365Z,5.05
2022-08-16T05:17:58.437Z,5.45
2022-08-16T05:20:38.395Z,4.72
2022-08-16T05:23:12.092Z,4.85
2022-08-16T05:25:48.231Z,5.72
2022-08-16T05:28:17.139Z,5.10
2022-08-16T05:30:43.888Z,5.38
2022-08-16T05:33:16.408Z,6.95
2022-08-16T05:35:43.883Z,5.82
2022-08-16T05:38:33.205Z,6.10
2022-08-16T05:41:00.036Z,5.80
2022-08-16T05:43:27.801Z,5.95
2022-08-16T05:46:00.032Z,6.53
2022-08-16T05:48:27.362Z,7.72
2022-08-16T05:50:54.137Z,7.93
2022-08-16T05:53:20.715Z,7.40
2022-08-16T05:55:51.592Z,7.47
2022-08-16T05:58:31.816Z,7.22
2022-08-16T06:01:00.121Z,9.07
2022-08-16T06:03:29.620Z,7.43
2022-08-16T06:05:56.568Z,7.15
2022-08-16T06:08:31.699Z,6.53
2022-08-16T06:11:09.947Z,7.43
2022-08-16T06:13:37.824Z,5.95
2022-08-16T06:16:09.231Z,7.03
2022-08-16T06:18:45.322Z,5.63
2022-08-16T06:21:13.160Z,6.00
2022-08-16T06:23:54.052Z,6.13
2022-08-16T06:26:21.608Z,7.20
2022-08-16T06:28:48.266Z,5.78
2022-08-16T06:31:17.004Z,5.88
2022-08-16T06:33:44.961Z,5.38
2022-08-16T06:36:14.230Z,5.03
2022-08-16T06:38:56.162Z,4.95
2022-08-16T06:41:24.224Z,5.35
2022-08-16T06:43:53.936Z,5.07
2022-08-16T06:46:31.427Z,5.30
2022-08-16T06:48:58.663Z,5.63
2022-08-16T06:51:25.175Z,5.38
2022-08-16T06:54:14.053Z,6.55
2022-08-16T06:56:42.422Z,5.68
2022-08-16T06:59:09.322Z,6.82
2022-08-16T07:01:44.998Z,6.00
2022-08-16T07:04:28.163Z,5.50
2022-08-16T07:07:00.297Z,5.38
2022-08-16T07:09:29.811Z,5.53
2022-08-16T07:12:03.777Z,5.18
2022-08-16T07:14:33.122Z,7.07
2022-08-16T07:16:59.857Z,6.90
2022-08-16T07:19:33.519Z,6.93
2022-08-16T07:22:37.942Z,6.18
2022-08-16T07:25:04.447Z,7.88
2022-08-16T07:27:33.769Z,6.15
2022-08-16T07:30:05.908Z,7.38
2022-08-16T07:32:52.947Z,7.13
2022-08-16T07:35:19.598Z,6.07
2022-08-16T07:37:46.197Z,7.50
2022-08-16T07:40:13.619Z,6.80
2022-08-16T07:42:40.185Z,6.93
2022-08-16T07:45:10.310Z,6.85
2022-08-16T07:47:37.204Z,7.03
2022-08-16T07:50:07.568Z,6.32
2022-08-16T07:52:34.915Z,7.05
2022-08-16T07:55:06.517Z,6.65
2022-08-16T07:57:37.945Z,6.50
2022-08-16T08:00:18.773Z,6.65
2022-08-16T08:02:47.551Z,6.50
2022-08-16T08:05:18.772Z,7.05
2022-08-16T08:07:57.671Z,6.95
2022-08-16T08:10:29.646Z,6.40
2022-08-16T08:12:59.313Z,6.63
2022-08-16T08:15:26.072Z,6.43
2022-08-16T08:17:52.903Z,6.10
2022-08-16T08:20:27.931Z,6.85
2022-08-16T08:23:00.706Z,5.47
2022-08-16T08:25:54.382Z,6.50
2022-08-16T08:28:17.490Z,5.50
2022-08-16T08:30:49.889Z,5.82
2022-08-16T08:33:22.797Z,5.95
2022-08-16T08:35:49.796Z,6.88
2022-08-16T08:38:45.020Z,7.70
2022-08-16T08:41:06.302Z,6.93
2022-08-16T08:43:41.698Z,7.47
2022-08-16T08:46:18.113Z,8.32
2022-08-16T08:48:59.826Z,7.20
2022-08-16T08:51:35.685Z,6.95
2022-08-16T08:54:06.817Z,7.93
2022-08-16T08:56:35.223Z,6.35
2022-08-16T08:59:06.348Z,7.57
2022-08-16T09:01:56.368Z,7.18
2022-08-16T09:04:26.605Z,8.35
2022-08-16T09:06:53.916Z,8.52
2022-08-16T09:09:21.634Z,7.93
2022-08-16T09:11:53.333Z,8.43
2022-08-16T09:14:25.758Z,6.18
2022-08-16T09:17:02.858Z,5.47
2022-08-16T09:19:37.229Z,5.57
2022-08-16T09:24:53.314Z,6.53
2022-08-16T09:27:23.531Z,5.25
2022-08-16T09:29:59.856Z,7.43
2022-08-16T09:32:30.315Z,5.90
2022-08-16T09:34:58.876Z,5.97
2022-08-16T09:37:29.398Z,5.72
2022-08-16T09:39:59.727Z,6.30
2022-08-16T09:42:28.527Z,6.40
2022-08-16T09:45:12.660Z,6.40
2022-08-16T09:47:56.184Z,6.85
2022-08-16T09:50:26.837Z,6.72
2022-08-16T09:53:05.846Z,7.47
2022-08-16T09:55:33.480Z,7.82
2022-08-16T09:58:12.309Z,7.20
2022-08-16T10:00:57.677Z,6.13
2022-08-16T10:03:27.632Z,6.65
2022-08-16T10:05:57.004Z,6.32
2022-08-16T10:08:26.940Z,6.78
2022-08-16T10:11:12.240Z,7.90
2022-08-16T10:13:39.564Z,7.20
2022-08-16T10:19:00.795Z,8.10
2022-08-16T10:21:24.293Z,6.38
2022-08-16T10:23:56.035Z,7.60
2022-08-16T10:27:20.325Z,7.45
2022-08-16T10:29:11.797Z,8.07
2022-08-16T10:31:45.323Z,8.00
2022-08-16T10:34:30.771Z,8.60
2022-08-16T10:39:25.187Z,7.93
2022-08-16T10:41:51.735Z,7.72
2022-08-16T10:44:18.322Z,7.70
2022-08-16T10:46:45.199Z,8.35
2022-08-16T10:49:16.890Z,7.40
2022-08-16T10:52:01.991Z,7.95
2022-08-16T10:54:31.009Z,6.63
2022-08-16T10:57:04.182Z,7.25
2022-08-16T10:59:39.179Z,7.80
2022-08-16T11:02:58.054Z,7.38
2022-08-16T11:05:08.168Z,8.02
2022-08-16T11:07:51.435Z,8.50
2022-08-16T11:13:57.337Z,7.65
2022-08-16T11:19:05.481Z,7.22
2022-08-16T11:21:37.604Z,7.43
2022-08-16T11:24:40.124Z,7.40
2022-08-16T11:27:35.684Z,8.20
2022-08-16T11:29:56.853Z,7.43
2022-08-16T11:32:31.940Z,9.10
2022-08-16T11:35:10.455Z,7.70
2022-08-16T11:40:32.741Z,7.13
2022-08-16T11:43:01.322Z,7.90
2022-08-16T11:45:28.054Z,8.13
2022-08-16T11:48:00.380Z,7.55
2022-08-16T11:50:27.382Z,7.68
2022-08-16T11:52:53.945Z,7.85
2022-08-16T11:55:23.657Z,6.82
2022-08-16T11:57:56.350Z,7.40
2022-08-16T12:00:33.122Z,7.57
2022-08-16T12:03:01.275Z,7.80
2022-08-16T12:05:28.360Z,7.15
2022-08-16T12:07:55.835Z,7.80
2022-08-16T12:10:24.802Z,7.55
2022-08-16T12:12:54.781Z,7.07
2022-08-16T12:15:26.503Z,7.45
2022-08-16T12:17:55.762Z,9.00
2022-08-16T12:20:26.111Z,8.38
2022-08-16T12:22:56.583Z,8.20
2022-08-16T12:25:28.001Z,7.38
2022-08-16T12:27:55.984Z,7.70
2022-08-16T12:30:33.532Z,7.30
2022-08-16T12:33:05.785Z,6.90
2022-08-16T12:35:35.612Z,8.77
2022-08-16T12:38:23.094Z,7.90
2022-08-16T12:40:53.023Z,8.85
2022-08-16T12:43:25.550Z,6.97
2022-08-16T12:45:55.463Z,7.97
2022-08-16T12:48:47.372Z,9.02
2022-08-16T12:51:19.780Z,10.35
2022-08-16T12:53:54.428Z,9.73
2022-08-16T12:56:26.142Z,10.43
2022-08-16T12:58:55.995Z,8.60
2022-08-16T13:01:26.773Z,7.05
2022-08-16T13:04:11.352Z,10.35
2022-08-16T13:06:40.040Z,7.45
2022-08-16T13:09:21.259Z,8.20
2022-08-16T13:12:04.402Z,9.77
2022-08-16T13:14:42.219Z,8.32
2022-08-16T13:17:18.876Z,8.25
2022-08-16T13:22:34.620Z,8.88
2022-08-16T13:25:01.215Z,8.50
2022-08-16T13:27:34.956Z,8.25
2022-08-16T13:30:36.438Z,7.55
2022-08-16T13:33:01.758Z,7.50
2022-08-16T13:35:38.257Z,7.10
2022-08-16T13:38:10.199Z,7.90
2022-08-16T13:40:48.172Z,8.10
2022-08-16T13:43:16.561Z,6.80
2022-08-16T13:45:44.840Z,7.70
2022-08-16T13:48:11.744Z,7.43
2022-08-16T13:50:52.937Z,7.03
2022-08-16T13:53:24.374Z,6.80
2022-08-16T13:55:57.756Z,7.80
2022-08-16T13:58:36.553Z,7.65
2022-08-16T14:01:09.780Z,6.55
2022-08-16T14:03:39.377Z,7.03
2022-08-16T14:06:10.498Z,7.03
2022-08-16T14:08:43.037Z,6.70
2022-08-16T14:11:14.664Z,5.82
2022-08-16T14:13:42.937Z,5.57
2022-08-16T14:16:12.732Z,6.05
2022-08-16T14:18:52.754Z,5.20
2022-08-16T14:21:21.920Z,4.88
2022-08-16T14:23:52.102Z,4.90
2022-08-16T14:26:21.134Z,4.88
2022-08-16T14:28:50.349Z,4.80
2022-08-16T14:31:18.350Z,4.80
2022-08-16T14:33:45.453Z,4.75
2022-08-16T14:36:12.084Z,4.57
2022-08-16T14:38:45.519Z,4.50
2022-08-16T14:41:13.511Z,4.57
2022-08-16T14:43:40.149Z,4.40
2022-08-16T14:46:07.392Z,4.63
2022-08-16T14:48:34.672Z,4.55
2022-08-16T14:51:01.379Z,4.30
2022-08-16T14:53:28.325Z,4.22
2022-08-16T14:55:55.080Z,4.35
2022-08-16T14:58:34.467Z,4.20
2022-08-16T15:01:03.808Z,4.60
2022-08-16T15:03:33.176Z,3.85
2022-08-16T15:06:03.968Z,4.07
2022-08-16T15:08:36.591Z,4.00
2022-08-16T15:11:04.772Z,4.07
2022-08-16T15:13:31.324Z,3.97
2022-08-16T15:16:02.503Z,4.60
2022-08-16T15:18:31.735Z,4.65
2022-08-16T15:21:04.035Z,4.75
2022-08-16T15:23:31.716Z,4.00
2022-08-16T15:26:02.856Z,4.18
2022-08-16T15:28:32.696Z,4.22
2022-08-16T15:31:05.938Z,4.18
2022-08-16T15:33:50.992Z,4.47
2022-08-16T15:36:25.875Z,3.72
2022-08-16T15:39:02.681Z,3.95
2022-08-16T15:41:42.676Z,4.22
2022-08-16T15:44:21.350Z,4.07
2022-08-16T15:46:57.148Z,4.70
2022-08-16T15:49:34.908Z,4.80
2022-08-16T15:52:12.180Z,3.83
2022-08-16T15:54:53.678Z,3.80
2022-08-16T15:57:25.770Z,3.92
2022-08-16T15:59:56.466Z,3.90
2022-08-16T16:02:32.077Z,4.25
2022-08-16T16:05:01.594Z,3.80
2022-08-16T16:07:30.244Z,3.95
2022-08-16T16:09:59.233Z,4.00
2022-08-16T16:12:53.970Z,4.05
2022-08-16T16:15:18.363Z,4.40
2022-08-16T16:17:50.908Z,4.25
2022-08-16T16:20:20.324Z,4.10
2022-08-16T16:22:49.986Z,3.80
2022-08-16T16:25:17.634Z,4.38
2022-08-16T16:27:45.441Z,4.07
2022-08-16T16:30:33.403Z,4.63
2022-08-16T16:33:01.077Z,4.43
2022-08-16T16:35:32.585Z,3.72
2022-08-16T16:37:59.869Z,4.15
2022-08-16T16:40:32.259Z,4.18
2022-08-16T16:43:00.614Z,3.97
2022-08-16T16:45:34.565Z,3.85
2022-08-16T16:48:12.306Z,4.18
2022-08-16T16:50:44.539Z,3.90
2022-08-16T16:53:17.402Z,3.88
2022-08-16T16:55:47.479Z,4.00
2022-08-16T16:58:38.759Z,3.95
2022-08-16T17:01:08.622Z,3.88
2022-08-16T17:03:35.602Z,3.65
2022-08-16T17:06:10.225Z,4.32
2022-08-16T17:08:40.914Z,3.60
2022-08-16T17:11:13.546Z,4.10
2022-08-16T17:13:41.940Z,4.25
2022-08-16T17:16:09.331Z,4.50
2022-08-16T17:19:17.516Z,6.35
2022-08-16T17:21:34.381Z,5.53
2022-08-16T17:24:17.937Z,6.00
2022-08-16T17:26:48.910Z,5.13
2022-08-16T17:29:15.833Z,5.30
2022-08-16T17:31:43.579Z,5.68
2022-08-16T17:34:28.972Z,5.00
2022-08-16T17:36:58.726Z,6.05
2022-08-16T17:39:29.330Z,5.53
2022-08-16T17:42:00.905Z,5.25
2022-08-16T17:44:27.721Z,5.43
2022-08-16T17:46:54.259Z,4.60
2022-08-16T17:49:21.764Z,4.78
2022-08-16T17:51:48.505Z,4.70
2022-08-16T17:54:18.300Z,5.05
2022-08-16T17:56:56.716Z,5.00
2022-08-16T17:59:24.192Z,3.97
2022-08-16T18:01:50.842Z,4.38
2022-08-16T18:04:48.184Z,4.53
2022-08-16T18:07:05.306Z,4.35
2022-08-16T18:09:31.891Z,4.47
2022-08-16T18:11:58.685Z,4.63
2022-08-16T18:14:52.268Z,3.70
2022-08-16T18:17:12.951Z,4.28
2022-08-16T18:19:39.717Z,4.05
2022-08-16T18:22:18.211Z,3.92
2022-08-16T18:24:46.377Z,3.80
2022-08-16T18:27:25.238Z,4.22
2022-08-16T18:29:53.225Z,3.75
2022-08-16T18:32:24.605Z,3.80
2022-08-16T18:34:55.022Z,3.75
2022-08-16T18:37:23.914Z,4.07
2022-08-16T18:39:50.603Z,4.40
2022-08-16T18:42:17.241Z,3.97
2022-08-16T18:44:44.363Z,4.25
2022-08-16T18:47:11.070Z,3.95
2022-08-16T18:49:37.813Z,4.10
2022-08-16T18:52:04.629Z,4.50
2022-08-16T18:54:33.706Z,4.28
2022-08-16T18:57:20.305Z,4.22
2022-08-16T18:59:46.799Z,3.67
2022-08-16T19:02:57.355Z,4.55
2022-08-16T19:05:16.960Z,4.10
2022-08-16T19:07:43.511Z,4.05
2022-08-16T19:10:10.226Z,3.97
2022-08-16T19:12:42.154Z,4.15
2022-08-16T19:15:14.608Z,4.43
2022-08-16T19:17:43.073Z,3.90
2022-08-16T19:20:11.177Z,3.72
2022-08-16T19:23:02.284Z,4.13
2022-08-16T19:25:46.712Z,4.13
2022-08-16T19:28:51.343Z,4.07
2022-08-16T19:31:17.819Z,4.13
2022-08-16T19:33:53.583Z,4.03
2022-08-16T19:36:31.285Z,3.65
2022-08-16T19:39:04.377Z,3.92
2022-08-16T19:41:33.407Z,4.10
2022-08-16T19:44:00.026Z,3.50
2022-08-16T19:46:26.506Z,4.07
2022-08-16T19:48:53.055Z,4.30
2022-08-16T19:51:19.558Z,3.85
2022-08-16T19:53:46.056Z,3.88
2022-08-16T19:56:12.577Z,3.33
2022-08-16T19:58:50.988Z,3.85
2022-08-16T20:01:25.676Z,3.90
2022-08-16T20:03:52.234Z,3.80
2022-08-16T20:06:35.800Z,3.80
2022-08-16T20:09:05.180Z,3.92
2022-08-16T20:11:31.731Z,4.20
2022-08-16T20:13:59.330Z,4.00
2022-08-16T20:16:26.095Z,3.90
2022-08-16T20:18:52.641Z,4.28
2022-08-16T20:21:19.502Z,4.05
2022-08-16T20:23:46.355Z,4.00
2022-08-16T20:26:13.045Z,4.38
2022-08-16T20:28:52.065Z,4.97
2022-08-16T20:31:20.221Z,4.20
2022-08-16T20:33:47.030Z,4.53
2022-08-16T20:36:16.238Z,4.90
2022-08-16T20:38:46.585Z,4.90
2022-08-16T20:41:13.295Z,5.40
2022-08-16T20:43:39.852Z,5.28
2022-08-16T20:46:06.379Z,5.47
2022-08-16T20:48:32.910Z,5.05
2022-08-16T20:50:59.420Z,5.47
2022-08-16T20:53:25.907Z,5.97
2022-08-16T20:55:52.433Z,6.43
2022-08-16T20:58:18.971Z,5.25
2022-08-16T21:00:45.669Z,5.80
2022-08-16T21:03:13.252Z,6.15
2022-08-16T21:05:40.102Z,6.18
2022-08-16T21:08:50.346Z,6.35
2022-08-16T21:10:53.897Z,6.38
2022-08-16T21:13:21.043Z,6.32
2022-08-16T21:15:48.938Z,6.70
2022-08-16T21:18:15.517Z,6.32
2022-08-16T21:20:42.074Z,6.05
2022-08-16T21:23:11.001Z,6.88
2022-08-16T21:25:42.142Z,6.15
2022-08-16T21:28:41.349Z,6.03
2022-08-16T21:31:10.864Z,6.63
2022-08-16T21:33:37.529Z,7.20
2022-08-16T21:36:05.029Z,6.05
2022-08-16T21:38:31.576Z,8.32
2022-08-16T21:41:03.031Z,7.03
2022-08-16T21:43:32.014Z,6.68
2022-08-16T21:46:02.366Z,7.07
2022-08-16T21:48:34.653Z,6.93
2022-08-16T21:51:14.604Z,6.78
2022-08-16T21:53:42.867Z,6.55
2022-08-16T21:56:16.962Z,8.30
2022-08-16T21:58:44.986Z,6.97
2022-08-16T22:01:11.515Z,6.05
2022-08-16T22:03:38.088Z,6.75
2022-08-16T22:06:14.066Z,6.25
2022-08-16T22:08:50.227Z,7.03
2022-08-16T22:11:22.089Z,7.20
2022-08-16T22:13:56.432Z,6.18
2022-08-16T22:16:27.070Z,5.80
2022-08-16T22:18:53.719Z,7.32
2022-08-16T22:21:20.656Z,6.68
2022-08-16T22:23:55.187Z,7.18
2022-08-16T22:26:32.096Z,6.75
2022-08-16T22:29:05.645Z,7.68
2022-08-16T22:31:33.164Z,6.90
2022-08-16T22:34:01.822Z,6.72
2022-08-16T22:36:29.476Z,7.53
2022-08-16T22:39:01.119Z,7.53
2022-08-16T22:41:28.889Z,7.47
2022-08-16T22:43:56.010Z,7.50
2022-08-16T22:46:22.624Z,6.82
2022-08-16T22:48:50.427Z,6.80
2022-08-16T22:51:18.554Z,7.10
2022-08-16T22:53:45.144Z,6.78
2022-08-16T22:56:11.718Z,6.05
2022-08-16T22:58:39.264Z,6.65
2022-08-16T23:01:08.183Z,6.50
2022-08-16T23:03:35.579Z,7.07
2022-08-16T23:06:02.594Z,6.00
2022-08-16T23:08:38.064Z,6.40
2022-08-16T23:11:06.024Z,6.22
2022-08-16T23:13:33.157Z,7.03
2022-08-16T23:16:03.143Z,6.75
2022-08-16T23:18:38.835Z,6.75
2022-08-16T23:21:09.083Z,6.80
2022-08-16T23:23:36.207Z,6.47
2022-08-16T23:26:44.591Z,7.07
2022-08-16T23:28:49.987Z,6.65
2022-08-16T23:31:16.740Z,7.40
2022-08-16T23:33:43.365Z,6.47
2022-08-16T23:36:10.367Z,6.50
2022-08-16T23:38:39.370Z,6.65
2022-08-16T23:41:11.776Z,6.03
2022-08-16T23:43:43.470Z,7.20
2022-08-16T23:46:16.866Z,6.50
2022-08-16T23:49:58.177Z,6.43
2022-08-16T23:51:31.503Z,6.20
2022-08-16T23:53:58.017Z,6.03
2022-08-16T23:56:25.678Z,7.10
2022-08-16T23:58:55.978Z,6.97
